Mason, Nevada
Current Conditions -  °F | °C
As of 8:55 AM on Saturday 22 Nov 2014 (Local Time) from KMEV Reporting Station
Broken Clouds Broken Clouds  
Wind Chill: 50°   Ceiling: 4300
Heat Index: 50°   Visibility: 10mi
Dew Point: 43°   Wind: 6mph
Humidity: 76%   Direction: 130°SE
Pressure: 29.98"   Gusts: 22mph
Location:  38.8785°N, 119.096°W
Report Text: KMEV 221655Z AUTO 13005G19KT 10SM FEW027 SCT037 BKN043 10/06 A2998 RMK AO2
Loading
Personal Weather Stations






























Interactive Weather Map New forecast layout! Learn more

10-Day Weather Forecast

Advertisements
Track Severe Weather on mobile